createdAt,value
2022-11-13T00:00:25.283Z,5.26
2022-11-13T00:05:25.204Z,5.38
2022-11-13T00:10:25.147Z,5.46
2022-11-13T00:15:25.082Z,5.53
2022-11-13T00:20:25.011Z,5.64
2022-11-13T00:25:24.945Z,5.65
2022-11-13T00:30:24.878Z,5.65
2022-11-13T00:35:24.845Z,5.68
2022-11-13T00:40:24.758Z,5.68
2022-11-13T00:45:24.680Z,5.62
2022-11-13T00:50:24.617Z,5.65
2022-11-13T00:55:24.535Z,5.64
2022-11-13T01:00:24.497Z,5.69
2022-11-13T01:05:44.101Z,5.64
2022-11-13T01:10:36.487Z,5.65
2022-11-13T01:15:36.439Z,5.64
2022-11-13T01:20:36.370Z,5.65
2022-11-13T01:25:36.319Z,5.56
2022-11-13T01:30:36.229Z,5.50
2022-11-13T01:35:36.168Z,5.48
2022-11-13T01:40:36.098Z,5.48
2022-11-13T01:45:36.065Z,5.50
2022-11-13T01:50:35.972Z,5.51
2022-11-13T01:55:35.903Z,5.51
2022-11-13T02:00:35.830Z,5.50
2022-11-13T02:05:35.768Z,5.39
2022-11-13T02:10:35.703Z,5.32
2022-11-13T02:15:35.637Z,5.26
2022-11-13T02:20:35.580Z,5.12
2022-11-13T02:25:35.484Z,5.10
2022-11-13T02:30:35.455Z,5.08
2022-11-13T02:35:35.377Z,5.11
2022-11-13T02:40:35.316Z,5.08
2022-11-13T02:45:35.254Z,5.07
2022-11-13T02:50:35.209Z,5.04
2022-11-13T02:55:35.110Z,4.97
2022-11-13T03:00:35.036Z,4.94
2022-11-13T03:05:34.968Z,4.93
2022-11-13T03:10:34.915Z,4.94
2022-11-13T03:15:34.841Z,5.00
2022-11-13T03:20:34.784Z,4.96
2022-11-13T03:25:34.707Z,4.90
2022-11-13T03:30:34.682Z,4.77
2022-11-13T03:35:41.861Z,4.71
2022-11-13T03:40:35.523Z,4.68
2022-11-13T03:45:34.439Z,4.67
2022-11-13T03:50:34.385Z,4.74
2022-11-13T03:55:34.298Z,4.70
2022-11-13T04:00:34.264Z,4.71
2022-11-13T04:05:34.179Z,4.70
2022-11-13T04:10:34.140Z,4.82
2022-11-13T04:15:34.075Z,4.75
2022-11-13T04:20:33.994Z,4.68
2022-11-13T04:25:33.935Z,4.66
2022-11-13T04:30:33.870Z,4.63
2022-11-13T04:35:33.793Z,4.60
2022-11-13T04:40:33.711Z,4.59
2022-11-13T04:45:33.663Z,4.44
2022-11-13T04:50:33.599Z,4.38
2022-11-13T04:55:33.531Z,4.34
2022-11-13T05:00:33.490Z,4.22
2022-11-13T05:05:33.394Z,4.28
2022-11-13T05:10:33.334Z,4.30
2022-11-13T05:15:33.269Z,4.28
2022-11-13T05:20:33.210Z,4.23
2022-11-13T05:25:33.118Z,4.14
2022-11-13T05:30:33.082Z,4.12
2022-11-13T05:35:33.037Z,4.06
2022-11-13T05:40:32.943Z,4.01
2022-11-13T05:45:32.879Z,3.94
2022-11-13T05:50:32.830Z,3.98
2022-11-13T05:55:32.730Z,4.04
2022-11-13T06:00:32.702Z,4.05
2022-11-13T06:05:32.624Z,4.01
2022-11-13T06:10:32.565Z,3.96
2022-11-13T06:15:32.506Z,4.05
2022-11-13T06:20:32.430Z,3.99
2022-11-13T06:25:32.358Z,3.95
2022-11-13T06:30:32.306Z,4.02
2022-11-13T06:35:32.242Z,4.02
2022-11-13T06:40:32.167Z,4.04
2022-11-13T06:45:32.083Z,4.05
2022-11-13T06:50:32.051Z,4.12
2022-11-13T06:55:31.970Z,4.13
2022-11-13T07:00:47.823Z,4.04
2022-11-13T07:05:40.238Z,4.05
2022-11-13T07:10:40.116Z,4.04
2022-11-13T07:15:40.064Z,4.19
2022-11-13T07:20:40.008Z,4.28
2022-11-13T07:25:39.939Z,4.34
2022-11-13T07:30:39.855Z,4.34
2022-11-13T07:35:39.791Z,4.41
2022-11-13T07:40:39.731Z,4.45
2022-11-13T07:45:39.658Z,4.42
2022-11-13T07:50:39.596Z,4.37
2022-11-13T07:55:39.541Z,4.40
2022-11-13T08:00:39.567Z,4.53
2022-11-13T08:05:39.409Z,4.62
2022-11-13T08:10:39.360Z,4.73
2022-11-13T08:15:39.260Z,4.77
2022-11-13T08:20:39.197Z,4.82
2022-11-13T08:25:39.136Z,4.84
2022-11-13T08:30:39.080Z,5.07
2022-11-13T08:35:38.989Z,5.18
2022-11-13T08:40:38.963Z,5.14
2022-11-13T08:45:38.889Z,5.26
2022-11-13T08:50:38.789Z,5.39
2022-11-13T08:55:38.742Z,5.44
2022-11-13T09:00:38.669Z,5.57
2022-11-13T09:05:38.590Z,5.71
2022-11-13T09:10:38.554Z,5.97
2022-11-13T09:15:38.489Z,6.19
2022-11-13T09:20:38.411Z,6.30
2022-11-13T09:25:38.483Z,6.30
2022-11-13T09:30:38.305Z,6.44
2022-11-13T09:35:38.231Z,6.75
2022-11-13T09:40:38.222Z,6.87
2022-11-13T09:45:38.094Z,6.84
2022-11-13T09:50:38.015Z,6.46
2022-11-13T09:55:37.958Z,6.30
2022-11-13T10:00:37.889Z,6.26
2022-11-13T10:05:37.830Z,6.22
2022-11-13T10:10:37.766Z,6.22
2022-11-13T10:15:37.702Z,6.26
2022-11-13T10:20:37.630Z,6.35
2022-11-13T10:25:37.562Z,6.45
2022-11-13T10:30:37.481Z,6.57
2022-11-13T10:35:37.426Z,6.87
2022-11-13T10:40:37.359Z,7.06
2022-11-13T10:45:37.307Z,7.17
2022-11-13T10:50:37.273Z,6.92
2022-11-13T10:55:37.172Z,7.00
2022-11-13T11:00:37.094Z,7.03
2022-11-13T11:05:37.032Z,7.14
2022-11-13T11:10:37.014Z,7.28
2022-11-13T11:15:36.928Z,7.45
2022-11-13T11:20:36.964Z,7.54
2022-11-13T11:25:36.799Z,7.54
2022-11-13T11:30:36.739Z,7.57
2022-11-13T11:35:36.626Z,7.93
2022-11-13T11:40:36.567Z,8.05
2022-11-13T11:45:36.510Z,8.79
2022-11-13T11:50:36.447Z,8.67
2022-11-13T11:55:36.386Z,8.34
2022-11-13T12:00:36.288Z,8.53
2022-11-13T12:05:36.329Z,8.91
2022-11-13T12:10:36.250Z,9.11
2022-11-13T12:15:36.148Z,9.32
2022-11-13T12:20:36.051Z,10.71
2022-11-13T12:25:35.968Z,10.28
2022-11-13T12:30:35.940Z,9.74
2022-11-13T12:35:35.846Z,9.18
2022-11-13T12:40:38.702Z,8.42
2022-11-13T12:45:36.742Z,8.27
2022-11-13T12:50:35.654Z,8.08
2022-11-13T12:55:35.587Z,7.93
2022-11-13T13:00:35.498Z,7.93
2022-11-13T13:05:35.446Z,8.08
2022-11-13T13:10:35.378Z,8.27
2022-11-13T13:15:35.313Z,8.30
2022-11-13T13:20:35.294Z,8.16
2022-11-13T13:25:35.309Z,8.06
2022-11-13T13:30:35.133Z,7.97
2022-11-13T13:35:35.122Z,7.87
2022-11-13T13:40:34.992Z,7.93
2022-11-13T13:45:34.903Z,8.09
2022-11-13T13:50:34.863Z,8.27
2022-11-13T13:55:34.795Z,8.44
2022-11-13T14:00:34.723Z,8.55
2022-11-13T14:05:34.686Z,8.69
2022-11-13T14:10:34.583Z,8.82
2022-11-13T14:15:34.531Z,8.92
2022-11-13T14:20:34.468Z,9.04
2022-11-13T14:25:34.476Z,9.16
2022-11-13T14:30:34.407Z,9.14
2022-11-13T14:35:35.071Z,9.06
2022-11-13T14:40:34.198Z,9.03
2022-11-13T14:45:34.171Z,9.06
2022-11-13T14:50:34.082Z,9.03
2022-11-13T14:55:34.004Z,8.97
2022-11-13T15:00:33.958Z,8.88
2022-11-13T15:05:33.892Z,8.76
2022-11-13T15:10:33.784Z,8.60
2022-11-13T15:15:33.743Z,8.52
2022-11-13T15:20:33.730Z,8.53
2022-11-13T15:25:33.611Z,8.53
2022-11-13T15:30:33.544Z,8.51
2022-11-13T15:35:33.521Z,8.30
2022-11-13T15:40:33.473Z,8.12
2022-11-13T15:45:33.352Z,8.00
2022-11-13T15:50:33.287Z,7.91
2022-11-13T15:55:33.207Z,7.79
2022-11-13T16:00:33.147Z,7.66
2022-11-13T16:05:33.091Z,7.56
2022-11-13T16:10:33.068Z,7.45
2022-11-13T16:15:32.934Z,7.25
2022-11-13T16:20:32.900Z,7.07
2022-11-13T16:25:32.829Z,6.99
2022-11-13T16:30:32.790Z,6.88
2022-11-13T16:35:32.694Z,6.75
2022-11-13T16:40:32.645Z,6.62
2022-11-13T16:45:32.592Z,6.49
2022-11-13T16:50:32.479Z,6.41
2022-11-13T16:55:32.435Z,6.35
2022-11-13T17:00:32.366Z,6.27
2022-11-13T17:05:32.273Z,6.16
2022-11-13T17:10:33.101Z,6.11
2022-11-13T17:15:32.137Z,6.09
2022-11-13T17:20:32.109Z,6.17
2022-11-13T17:25:32.040Z,6.26
2022-11-13T17:30:31.936Z,6.19
2022-11-13T17:35:31.893Z,6.22
2022-11-13T17:40:31.835Z,6.19
2022-11-13T17:45:31.731Z,6.11
2022-11-13T17:50:31.695Z,6.08
2022-11-13T17:55:31.634Z,6.02
2022-11-13T18:00:31.555Z,5.97
2022-11-13T18:05:31.502Z,5.87
2022-11-13T18:10:31.446Z,5.79
2022-11-13T18:15:39.613Z,5.75
2022-11-13T18:20:31.290Z,5.71
2022-11-13T18:25:35.347Z,5.66
2022-11-13T18:30:32.174Z,5.65
2022-11-13T18:35:31.086Z,5.62
2022-11-13T18:40:31.033Z,5.56
2022-11-13T18:45:30.983Z,5.48
2022-11-13T18:50:30.871Z,5.43
2022-11-13T18:55:30.842Z,5.38
2022-11-13T19:00:30.788Z,5.36
2022-11-13T19:05:30.692Z,5.38
2022-11-13T19:10:30.666Z,5.38
2022-11-13T19:15:30.580Z,5.33
2022-11-13T19:20:30.497Z,5.30
2022-11-13T19:25:30.432Z,5.28
2022-11-13T19:30:30.372Z,5.15
2022-11-13T19:35:30.285Z,5.08
2022-11-13T19:40:30.251Z,5.02
2022-11-13T19:45:30.198Z,5.05
2022-11-13T19:50:30.118Z,4.99
2022-11-13T19:55:30.060Z,4.96
2022-11-13T20:00:30.001Z,4.96
2022-11-13T20:05:29.906Z,4.90
2022-11-13T20:10:29.839Z,4.89
2022-11-13T20:15:30.098Z,4.82
2022-11-13T20:20:29.725Z,4.78
2022-11-13T20:25:29.635Z,4.71
2022-11-13T20:30:29.606Z,4.68
2022-11-13T20:35:29.592Z,4.60
2022-11-13T20:40:29.473Z,4.53
2022-11-13T20:45:29.393Z,4.55
2022-11-13T20:50:29.360Z,4.49
2022-11-13T20:55:29.266Z,4.49
2022-11-13T21:00:29.197Z,4.48
2022-11-13T21:05:29.142Z,4.44
2022-11-13T21:10:29.096Z,4.42
2022-11-13T21:15:29.012Z,4.37
2022-11-13T21:20:28.943Z,4.35
2022-11-13T21:25:28.889Z,4.32
2022-11-13T21:30:28.800Z,4.24
2022-11-13T21:35:28.865Z,4.19
2022-11-13T21:40:28.703Z,4.16
2022-11-13T21:45:28.636Z,4.06
2022-11-13T21:50:28.559Z,4.01
2022-11-13T21:55:28.496Z,4.02
2022-11-13T22:00:28.427Z,3.88
2022-11-13T22:05:28.371Z,3.81
2022-11-13T22:10:28.370Z,3.73
2022-11-13T22:15:28.242Z,3.74
2022-11-13T22:20:28.370Z,3.78
2022-11-13T22:25:28.095Z,3.84
2022-11-13T22:30:28.054Z,3.83
2022-11-13T22:35:27.956Z,3.73
2022-11-13T22:40:27.927Z,3.63
2022-11-13T22:45:27.844Z,3.65
2022-11-13T22:50:27.794Z,3.60
2022-11-13T22:55:27.717Z,3.59
2022-11-13T23:00:27.689Z,3.62
2022-11-13T23:05:27.596Z,3.62
2022-11-13T23:10:27.568Z,3.48
2022-11-13T23:15:27.463Z,3.47
2022-11-13T23:20:27.406Z,3.45
2022-11-13T23:25:27.313Z,3.53
2022-11-13T23:30:27.280Z,3.58
2022-11-13T23:35:27.210Z,3.59
2022-11-13T23:40:27.157Z,3.59
2022-11-13T23:45:27.080Z,3.63
2022-11-13T23:50:27.041Z,3.66
2022-11-13T23:55:26.960Z,3.55
